Altmar, NY (13302)

11:14 AM EDT on March 25, 2017 (GMT -0400)
Orwell | | Change Station

Elev 709 ft 43.58 °N, 76.01 °W | Updated 15 seconds ago

Rain
Rain
36.7 °F
Feels Like 34 °F
N
4.0
Wind Variable Wind from NE
Gusts 4.9 mph

Today
High -- | Low -- °F
--% Chance of Precip.
Yesterday
High -- | Low -- °F
Precip. -- in
Pressure 30.28 in
Visibility 4.0 miles
Clouds Mostly Cloudy 600 ft
Mostly Cloudy 6000 ft
Overcast 7000 ft
Windchill 34 °F
Dew Point 30 °F
Humidity 75%
Rainfall 0.05 in
Snow Depth Not available.
6:57 AM 7:22 PM
Waning Crescent, 8% visible
METAR KFZY 251454Z AUTO 01009KT 4SM -RA BR BKN006 BKN060 OVC070 02/00 A3026 RMK AO2 SLP253 P0004 60011 I3000 T00170000 51018
Pressure 30.28 in
Visibility 4.0 miles
Clouds Mostly Cloudy 600 ft
Mostly Cloudy 6000 ft
Overcast 7000 ft
Windchill 34 °F
Dew Point 30 °F
Humidity 75%
Rainfall 0.05 in
Snow Depth Not available.
6:57 AM 7:22 PM
Waning Crescent, 8% visible
METAR KFZY 251454Z AUTO 01009KT 4SM -RA BR BKN006 BKN060 OVC070 02/00 A3026 RMK AO2 SLP253 P0004 60011 I3000 T00170000 51018

Get Severe Weather Alerts

Thanks for signing up!

Be on the lookout for a verification email in your inbox.

You'll start receiving the daily forecast at 8 AM.

×

10-Day Weather Forecast

Almanac

Astronomy

Mar. 25, 2017 Rise Set
Actual Time
Civil Twilight
Nautical Twilight
Astronomical Twilight
Moon
Length of Visible Light
Length of Day
Tomorrow will be .
, % of the Moon is Illuminated

Today's Extremes

State Highs State Lows

Community

WunderPhotos

Upload Photos

1,962,540 photos uploaded!

WunderBlog® & News

Nearby

Air Quality

  Air Quality AQ Index Pollutant
Not available.

Snow Depth

Station Depth Elevation

Earthquake Activity

City Distance Mag. Time & Date
Minimum magnitude displayed is 2.5.

Earthquake Activity

City Distance Mag. Time & Date
Minimum magnitude displayed is 2.5.

Coastal Water Temperatures

Place Temperature

Stations

Nearby Weather Stations

Station Location Temp. Windchill Dew Point Humidity Wind Precip. Elev Updated Type
                   

Watches & Warnings

There are currently no watches in effect.